sensor_id;sensor_type;location;lat;lon;timestamp;P1;durP1;ratioP1;P2;durP2;ratioP2
46835;SDS011;32573;51.290;6.926;2023-02-19T00:01:59;13.48;;;8.05;;
46835;SDS011;32573;51.290;6.926;2023-02-19T00:04:28;12.73;;;7.72;;
46835;SDS011;32573;51.290;6.926;2023-02-19T00:06:56;13.20;;;7.88;;
46835;SDS011;32573;51.290;6.926;2023-02-19T00:09:25;12.60;;;7.97;;
46835;SDS011;32573;51.290;6.926;2023-02-19T00:11:54;14.18;;;8.57;;
46835;SDS011;32573;51.290;6.926;2023-02-19T00:14:23;13.73;;;8.27;;
46835;SDS011;32573;51.290;6.926;2023-02-19T00:16:52;14.25;;;8.60;;
46835;SDS011;32573;51.290;6.926;2023-02-19T00:19:20;13.60;;;8.27;;
46835;SDS011;32573;51.290;6.926;2023-02-19T00:21:49;12.13;;;7.22;;
46835;SDS011;32573;51.290;6.926;2023-02-19T00:24:19;11.52;;;7.35;;
46835;SDS011;32573;51.290;6.926;2023-02-19T00:26:48;14.20;;;8.68;;
46835;SDS011;32573;51.290;6.926;2023-02-19T00:29:18;10.95;;;7.32;;
46835;SDS011;32573;51.290;6.926;2023-02-19T00:31:47;13.40;;;7.72;;
46835;SDS011;32573;51.290;6.926;2023-02-19T00:34:16;15.30;;;8.68;;
46835;SDS011;32573;51.290;6.926;2023-02-19T00:36:44;14.32;;;8.52;;
46835;SDS011;32573;51.290;6.926;2023-02-19T00:39:13;14.13;;;8.57;;
46835;SDS011;32573;51.290;6.926;2023-02-19T00:41:45;14.40;;;8.32;;
46835;SDS011;32573;51.290;6.926;2023-02-19T00:44:14;14.15;;;7.85;;
46835;SDS011;32573;51.290;6.926;2023-02-19T00:46:44;12.63;;;7.82;;
46835;SDS011;32573;51.290;6.926;2023-02-19T00:49:16;13.73;;;7.97;;
46835;SDS011;32573;51.290;6.926;2023-02-19T00:51:46;14.45;;;8.25;;
46835;SDS011;32573;51.290;6.926;2023-02-19T00:54:16;13.27;;;7.75;;
46835;SDS011;32573;51.290;6.926;2023-02-19T00:56:45;13.00;;;7.38;;
46835;SDS011;32573;51.290;6.926;2023-02-19T00:59:14;12.15;;;6.85;;
46835;SDS011;32573;51.290;6.926;2023-02-19T01:01:44;13.80;;;8.60;;
46835;SDS011;32573;51.290;6.926;2023-02-19T01:04:12;14.70;;;8.43;;
46835;SDS011;32573;51.290;6.926;2023-02-19T01:06:42;15.52;;;9.20;;
46835;SDS011;32573;51.290;6.926;2023-02-19T01:09:10;15.15;;;8.88;;
46835;SDS011;32573;51.290;6.926;2023-02-19T01:11:40;18.33;;;9.70;;
46835;SDS011;32573;51.290;6.926;2023-02-19T01:14:08;17.33;;;9.63;;
46835;SDS011;32573;51.290;6.926;2023-02-19T01:16:37;16.52;;;9.07;;
46835;SDS011;32573;51.290;6.926;2023-02-19T01:19:06;14.10;;;8.10;;
46835;SDS011;32573;51.290;6.926;2023-02-19T01:21:35;19.45;;;10.10;;
46835;SDS011;32573;51.290;6.926;2023-02-19T01:24:03;15.60;;;9.25;;
46835;SDS011;32573;51.290;6.926;2023-02-19T01:26:32;18.38;;;9.35;;
46835;SDS011;32573;51.290;6.926;2023-02-19T01:29:02;18.02;;;9.82;;
46835;SDS011;32573;51.290;6.926;2023-02-19T01:31:31;16.42;;;8.85;;
46835;SDS011;32573;51.290;6.926;2023-02-19T01:34:01;17.85;;;9.65;;
46835;SDS011;32573;51.290;6.926;2023-02-19T01:36:32;18.25;;;9.43;;
46835;SDS011;32573;51.290;6.926;2023-02-19T01:39:03;19.88;;;10.63;;
46835;SDS011;32573;51.290;6.926;2023-02-19T01:41:35;17.40;;;9.25;;
46835;SDS011;32573;51.290;6.926;2023-02-19T01:44:06;21.40;;;10.10;;
46835;SDS011;32573;51.290;6.926;2023-02-19T01:46:55;18.92;;;9.88;;
46835;SDS011;32573;51.290;6.926;2023-02-19T01:49:26;15.63;;;8.70;;
46835;SDS011;32573;51.290;6.926;2023-02-19T01:51:58;20.17;;;10.95;;
46835;SDS011;32573;51.290;6.926;2023-02-19T01:54:29;22.80;;;10.50;;
46835;SDS011;32573;51.290;6.926;2023-02-19T01:57:03;18.73;;;10.32;;
46835;SDS011;32573;51.290;6.926;2023-02-19T01:59:34;20.40;;;10.35;;
46835;SDS011;32573;51.290;6.926;2023-02-19T02:02:04;20.67;;;10.52;;
46835;SDS011;32573;51.290;6.926;2023-02-19T02:04:33;19.75;;;10.32;;
46835;SDS011;32573;51.290;6.926;2023-02-19T02:07:03;21.00;;;10.60;;
46835;SDS011;32573;51.290;6.926;2023-02-19T02:09:54;20.55;;;10.40;;
46835;SDS011;32573;51.290;6.926;2023-02-19T02:12:40;21.88;;;10.75;;
46835;SDS011;32573;51.290;6.926;2023-02-19T02:15:09;21.08;;;10.88;;
46835;SDS011;32573;51.290;6.926;2023-02-19T02:17:39;22.75;;;10.57;;
46835;SDS011;32573;51.290;6.926;2023-02-19T02:20:20;20.63;;;10.40;;
46835;SDS011;32573;51.290;6.926;2023-02-19T02:25:48;23.73;;;10.95;;
46835;SDS011;32573;51.290;6.926;2023-02-19T02:31:23;20.85;;;9.50;;
46835;SDS011;32573;51.290;6.926;2023-02-19T02:33:56;21.15;;;10.35;;
46835;SDS011;32573;51.290;6.926;2023-02-19T02:36:29;19.40;;;10.55;;
46835;SDS011;32573;51.290;6.926;2023-02-19T02:39:00;23.15;;;10.18;;
46835;SDS011;32573;51.290;6.926;2023-02-19T02:41:39;20.85;;;10.18;;
46835;SDS011;32573;51.290;6.926;2023-02-19T02:44:10;21.58;;;11.00;;
46835;SDS011;32573;51.290;6.926;2023-02-19T02:46:40;21.00;;;10.50;;
46835;SDS011;32573;51.290;6.926;2023-02-19T02:49:14;24.25;;;11.40;;
46835;SDS011;32573;51.290;6.926;2023-02-19T02:51:48;22.20;;;11.38;;
46835;SDS011;32573;51.290;6.926;2023-02-19T02:54:25;22.35;;;11.77;;
46835;SDS011;32573;51.290;6.926;2023-02-19T02:57:18;24.48;;;11.38;;
46835;SDS011;32573;51.290;6.926;2023-02-19T02:59:52;22.92;;;11.45;;
46835;SDS011;32573;51.290;6.926;2023-02-19T03:02:23;27.63;;;12.38;;
46835;SDS011;32573;51.290;6.926;2023-02-19T03:04:57;23.83;;;11.88;;
46835;SDS011;32573;51.290;6.926;2023-02-19T03:07:49;25.15;;;12.35;;
46835;SDS011;32573;51.290;6.926;2023-02-19T03:10:24;22.52;;;11.68;;
46835;SDS011;32573;51.290;6.926;2023-02-19T03:12:58;24.83;;;12.40;;
46835;SDS011;32573;51.290;6.926;2023-02-19T03:15:49;26.50;;;12.30;;
46835;SDS011;32573;51.290;6.926;2023-02-19T03:18:42;24.63;;;12.25;;
46835;SDS011;32573;51.290;6.926;2023-02-19T03:21:33;27.27;;;11.80;;
46835;SDS011;32573;51.290;6.926;2023-02-19T03:24:07;22.33;;;11.13;;
46835;SDS011;32573;51.290;6.926;2023-02-19T03:26:56;19.85;;;10.43;;
46835;SDS011;32573;51.290;6.926;2023-02-19T03:29:31;23.17;;;11.73;;
46835;SDS011;32573;51.290;6.926;2023-02-19T03:32:07;25.48;;;11.75;;
46835;SDS011;32573;51.290;6.926;2023-02-19T03:34:42;25.17;;;12.30;;
46835;SDS011;32573;51.290;6.926;2023-02-19T03:37:15;24.45;;;11.95;;
46835;SDS011;32573;51.290;6.926;2023-02-19T03:39:51;25.55;;;12.60;;
46835;SDS011;32573;51.290;6.926;2023-02-19T03:42:24;24.23;;;12.05;;
46835;SDS011;32573;51.290;6.926;2023-02-19T03:45:11;26.95;;;12.68;;
46835;SDS011;32573;51.290;6.926;2023-02-19T03:47:52;21.15;;;10.98;;
46835;SDS011;32573;51.290;6.926;2023-02-19T03:50:34;22.90;;;11.05;;
46835;SDS011;32573;51.290;6.926;2023-02-19T03:53:11;25.77;;;12.15;;
46835;SDS011;32573;51.290;6.926;2023-02-19T03:55:49;27.38;;;12.63;;
46835;SDS011;32573;51.290;6.926;2023-02-19T03:58:26;22.40;;;10.85;;
46835;SDS011;32573;51.290;6.926;2023-02-19T04:01:01;28.33;;;12.20;;
46835;SDS011;32573;51.290;6.926;2023-02-19T04:03:35;24.50;;;11.75;;
46835;SDS011;32573;51.290;6.926;2023-02-19T04:06:10;21.33;;;10.98;;
46835;SDS011;32573;51.290;6.926;2023-02-19T04:08:42;22.95;;;11.35;;
46835;SDS011;32573;51.290;6.926;2023-02-19T04:11:13;22.27;;;11.15;;
46835;SDS011;32573;51.290;6.926;2023-02-19T04:13:44;23.63;;;11.50;;
46835;SDS011;32573;51.290;6.926;2023-02-19T04:16:18;24.17;;;11.00;;
46835;SDS011;32573;51.290;6.926;2023-02-19T04:18:51;22.67;;;11.18;;
46835;SDS011;32573;51.290;6.926;2023-02-19T04:21:24;25.08;;;11.45;;
46835;SDS011;32573;51.290;6.926;2023-02-19T04:23:56;24.45;;;12.30;;
46835;SDS011;32573;51.290;6.926;2023-02-19T04:26:28;21.10;;;10.80;;
46835;SDS011;32573;51.290;6.926;2023-02-19T04:28:59;24.50;;;11.52;;
46835;SDS011;32573;51.290;6.926;2023-02-19T04:31:28;23.67;;;11.45;;
46835;SDS011;32573;51.290;6.926;2023-02-19T04:34:01;22.02;;;10.07;;
46835;SDS011;32573;51.290;6.926;2023-02-19T04:36:31;28.98;;;11.75;;
46835;SDS011;32573;51.290;6.926;2023-02-19T04:39:00;23.23;;;11.38;;
46835;SDS011;32573;51.290;6.926;2023-02-19T04:41:28;26.40;;;11.65;;
46835;SDS011;32573;51.290;6.926;2023-02-19T04:43:57;27.48;;;12.75;;
46835;SDS011;32573;51.290;6.926;2023-02-19T04:46:25;24.33;;;12.05;;
46835;SDS011;32573;51.290;6.926;2023-02-19T04:48:54;24.75;;;11.85;;
46835;SDS011;32573;51.290;6.926;2023-02-19T04:51:23;23.27;;;11.35;;
46835;SDS011;32573;51.290;6.926;2023-02-19T04:53:52;25.88;;;12.07;;
46835;SDS011;32573;51.290;6.926;2023-02-19T04:56:22;22.40;;;9.98;;
46835;SDS011;32573;51.290;6.926;2023-02-19T04:58:50;20.98;;;11.25;;
46835;SDS011;32573;51.290;6.926;2023-02-19T05:01:18;24.08;;;10.82;;
46835;SDS011;32573;51.290;6.926;2023-02-19T05:03:47;21.42;;;11.00;;
46835;SDS011;32573;51.290;6.926;2023-02-19T05:06:15;29.65;;;12.68;;
46835;SDS011;32573;51.290;6.926;2023-02-19T05:08:44;29.33;;;13.40;;
46835;SDS011;32573;51.290;6.926;2023-02-19T05:11:13;27.65;;;13.40;;
46835;SDS011;32573;51.290;6.926;2023-02-19T05:13:42;24.52;;;11.45;;
46835;SDS011;32573;51.290;6.926;2023-02-19T05:16:11;24.38;;;11.15;;
46835;SDS011;32573;51.290;6.926;2023-02-19T05:18:42;23.80;;;11.68;;
46835;SDS011;32573;51.290;6.926;2023-02-19T05:21:12;25.38;;;11.20;;
46835;SDS011;32573;51.290;6.926;2023-02-19T05:23:41;23.73;;;11.38;;
46835;SDS011;32573;51.290;6.926;2023-02-19T05:26:11;22.15;;;10.00;;
46835;SDS011;32573;51.290;6.926;2023-02-19T05:28:44;20.70;;;9.70;;
46835;SDS011;32573;51.290;6.926;2023-02-19T05:31:13;20.45;;;10.05;;
46835;SDS011;32573;51.290;6.926;2023-02-19T05:33:42;18.85;;;9.18;;
46835;SDS011;32573;51.290;6.926;2023-02-19T05:36:16;22.92;;;10.10;;
46835;SDS011;32573;51.290;6.926;2023-02-19T05:38:46;22.58;;;9.60;;
46835;SDS011;32573;51.290;6.926;2023-02-19T05:41:19;20.70;;;9.38;;
46835;SDS011;32573;51.290;6.926;2023-02-19T05:43:50;17.75;;;8.95;;
46835;SDS011;32573;51.290;6.926;2023-02-19T05:46:19;17.15;;;9.18;;
46835;SDS011;32573;51.290;6.926;2023-02-19T05:48:49;19.60;;;9.18;;
46835;SDS011;32573;51.290;6.926;2023-02-19T05:51:22;19.02;;;8.88;;
46835;SDS011;32573;51.290;6.926;2023-02-19T05:53:51;16.98;;;8.00;;
46835;SDS011;32573;51.290;6.926;2023-02-19T05:56:23;17.38;;;8.20;;
46835;SDS011;32573;51.290;6.926;2023-02-19T05:59:01;19.45;;;8.38;;
46835;SDS011;32573;51.290;6.926;2023-02-19T06:01:32;19.83;;;8.55;;
46835;SDS011;32573;51.290;6.926;2023-02-19T06:04:02;17.95;;;8.43;;
46835;SDS011;32573;51.290;6.926;2023-02-19T06:06:30;16.08;;;7.28;;
46835;SDS011;32573;51.290;6.926;2023-02-19T06:08:59;16.52;;;7.57;;
46835;SDS011;32573;51.290;6.926;2023-02-19T06:11:27;13.10;;;7.15;;
46835;SDS011;32573;51.290;6.926;2023-02-19T06:13:56;14.52;;;7.75;;
46835;SDS011;32573;51.290;6.926;2023-02-19T06:16:26;13.88;;;6.25;;
46835;SDS011;32573;51.290;6.926;2023-02-19T06:18:55;17.90;;;7.70;;
46835;SDS011;32573;51.290;6.926;2023-02-19T06:21:23;14.75;;;6.30;;
46835;SDS011;32573;51.290;6.926;2023-02-19T06:23:52;21.95;;;8.73;;
46835;SDS011;32573;51.290;6.926;2023-02-19T06:26:22;21.40;;;8.32;;
46835;SDS011;32573;51.290;6.926;2023-02-19T06:28:51;19.10;;;8.18;;
46835;SDS011;32573;51.290;6.926;2023-02-19T06:31:20;14.88;;;7.47;;
46835;SDS011;32573;51.290;6.926;2023-02-19T06:33:51;16.02;;;7.00;;
46835;SDS011;32573;51.290;6.926;2023-02-19T06:36:21;16.70;;;6.82;;
46835;SDS011;32573;51.290;6.926;2023-02-19T06:38:50;15.00;;;7.03;;
46835;SDS011;32573;51.290;6.926;2023-02-19T06:41:18;14.75;;;6.70;;
46835;SDS011;32573;51.290;6.926;2023-02-19T06:43:47;16.55;;;6.68;;
46835;SDS011;32573;51.290;6.926;2023-02-19T06:46:15;18.90;;;6.95;;
46835;SDS011;32573;51.290;6.926;2023-02-19T06:48:44;17.58;;;6.55;;
46835;SDS011;32573;51.290;6.926;2023-02-19T06:51:14;18.35;;;6.65;;
46835;SDS011;32573;51.290;6.926;2023-02-19T06:53:45;16.60;;;6.68;;
46835;SDS011;32573;51.290;6.926;2023-02-19T06:56:21;12.80;;;6.03;;
46835;SDS011;32573;51.290;6.926;2023-02-19T06:58:51;19.75;;;7.22;;
46835;SDS011;32573;51.290;6.926;2023-02-19T07:01:20;14.95;;;6.00;;
46835;SDS011;32573;51.290;6.926;2023-02-19T07:03:49;15.02;;;6.05;;
46835;SDS011;32573;51.290;6.926;2023-02-19T07:06:20;10.05;;;4.80;;
46835;SDS011;32573;51.290;6.926;2023-02-19T07:08:49;15.35;;;6.20;;
46835;SDS011;32573;51.290;6.926;2023-02-19T07:11:18;16.45;;;6.88;;
46835;SDS011;32573;51.290;6.926;2023-02-19T07:13:47;15.05;;;6.28;;
46835;SDS011;32573;51.290;6.926;2023-02-19T07:16:15;16.25;;;6.53;;
46835;SDS011;32573;51.290;6.926;2023-02-19T07:18:44;10.45;;;5.53;;
46835;SDS011;32573;51.290;6.926;2023-02-19T07:21:13;14.85;;;6.03;;
46835;SDS011;32573;51.290;6.926;2023-02-19T07:23:44;13.63;;;5.65;;
46835;SDS011;32573;51.290;6.926;2023-02-19T07:26:13;14.00;;;6.15;;
46835;SDS011;32573;51.290;6.926;2023-02-19T07:28:45;18.45;;;6.45;;
46835;SDS011;32573;51.290;6.926;2023-02-19T07:31:15;11.65;;;6.18;;
46835;SDS011;32573;51.290;6.926;2023-02-19T07:33:45;19.25;;;6.80;;
46835;SDS011;32573;51.290;6.926;2023-02-19T07:36:15;12.35;;;6.22;;
46835;SDS011;32573;51.290;6.926;2023-02-19T07:38:45;13.10;;;6.47;;
46835;SDS011;32573;51.290;6.926;2023-02-19T07:41:13;16.13;;;6.32;;
46835;SDS011;32573;51.290;6.926;2023-02-19T07:43:42;15.05;;;6.35;;
46835;SDS011;32573;51.290;6.926;2023-02-19T07:46:11;14.57;;;6.63;;
46835;SDS011;32573;51.290;6.926;2023-02-19T07:48:41;14.23;;;6.80;;
46835;SDS011;32573;51.290;6.926;2023-02-19T07:51:10;20.13;;;7.40;;
46835;SDS011;32573;51.290;6.926;2023-02-19T07:53:42;19.50;;;7.55;;
46835;SDS011;32573;51.290;6.926;2023-02-19T07:56:12;15.00;;;7.47;;
46835;SDS011;32573;51.290;6.926;2023-02-19T07:58:40;17.95;;;6.93;;
46835;SDS011;32573;51.290;6.926;2023-02-19T08:01:10;14.38;;;6.65;;
46835;SDS011;32573;51.290;6.926;2023-02-19T08:03:41;17.77;;;7.25;;
46835;SDS011;32573;51.290;6.926;2023-02-19T08:06:09;14.45;;;7.65;;
46835;SDS011;32573;51.290;6.926;2023-02-19T08:08:38;13.35;;;6.30;;
46835;SDS011;32573;51.290;6.926;2023-02-19T08:11:08;15.10;;;7.10;;
46835;SDS011;32573;51.290;6.926;2023-02-19T08:13:55;16.45;;;7.55;;
46835;SDS011;32573;51.290;6.926;2023-02-19T08:16:24;15.90;;;7.53;;
46835;SDS011;32573;51.290;6.926;2023-02-19T08:19:08;16.73;;;6.85;;
46835;SDS011;32573;51.290;6.926;2023-02-19T08:21:37;13.63;;;6.45;;
46835;SDS011;32573;51.290;6.926;2023-02-19T08:24:05;12.98;;;6.38;;
46835;SDS011;32573;51.290;6.926;2023-02-19T08:26:34;15.32;;;6.80;;
46835;SDS011;32573;51.290;6.926;2023-02-19T08:29:04;15.73;;;7.13;;
46835;SDS011;32573;51.290;6.926;2023-02-19T08:31:33;14.00;;;7.13;;
46835;SDS011;32573;51.290;6.926;2023-02-19T08:34:02;17.70;;;7.20;;
46835;SDS011;32573;51.290;6.926;2023-02-19T08:36:30;17.35;;;7.88;;
46835;SDS011;32573;51.290;6.926;2023-02-19T08:38:58;15.40;;;7.03;;
46835;SDS011;32573;51.290;6.926;2023-02-19T08:41:27;15.25;;;7.32;;
46835;SDS011;32573;51.290;6.926;2023-02-19T08:43:55;15.15;;;6.80;;
46835;SDS011;32573;51.290;6.926;2023-02-19T08:46:25;15.73;;;6.72;;
46835;SDS011;32573;51.290;6.926;2023-02-19T08:48:53;14.38;;;7.07;;
46835;SDS011;32573;51.290;6.926;2023-02-19T08:51:21;13.82;;;6.43;;
46835;SDS011;32573;51.290;6.926;2023-02-19T08:53:50;20.23;;;9.10;;
46835;SDS011;32573;51.290;6.926;2023-02-19T08:56:18;15.10;;;7.97;;
46835;SDS011;32573;51.290;6.926;2023-02-19T08:58:46;15.85;;;7.07;;
46835;SDS011;32573;51.290;6.926;2023-02-19T09:01:15;14.23;;;6.85;;
46835;SDS011;32573;51.290;6.926;2023-02-19T09:03:46;16.23;;;6.90;;
46835;SDS011;32573;51.290;6.926;2023-02-19T09:06:15;12.18;;;6.20;;
46835;SDS011;32573;51.290;6.926;2023-02-19T09:08:44;13.77;;;6.22;;
46835;SDS011;32573;51.290;6.926;2023-02-19T09:11:13;17.00;;;7.95;;
46835;SDS011;32573;51.290;6.926;2023-02-19T09:13:42;18.42;;;7.78;;
46835;SDS011;32573;51.290;6.926;2023-02-19T09:16:10;16.80;;;7.82;;
46835;SDS011;32573;51.290;6.926;2023-02-19T09:18:39;15.20;;;7.18;;
46835;SDS011;32573;51.290;6.926;2023-02-19T09:21:09;15.23;;;7.57;;
46835;SDS011;32573;51.290;6.926;2023-02-19T09:23:37;15.65;;;7.50;;
46835;SDS011;32573;51.290;6.926;2023-02-19T09:26:06;15.88;;;7.85;;
46835;SDS011;32573;51.290;6.926;2023-02-19T09:28:36;17.90;;;8.20;;
46835;SDS011;32573;51.290;6.926;2023-02-19T09:31:08;17.35;;;7.72;;
46835;SDS011;32573;51.290;6.926;2023-02-19T09:33:40;17.73;;;7.47;;
46835;SDS011;32573;51.290;6.926;2023-02-19T09:36:11;18.35;;;7.18;;
46835;SDS011;32573;51.290;6.926;2023-02-19T09:38:40;16.55;;;7.10;;
46835;SDS011;32573;51.290;6.926;2023-02-19T09:41:13;12.68;;;6.32;;
46835;SDS011;32573;51.290;6.926;2023-02-19T09:43:43;14.93;;;7.22;;
46835;SDS011;32573;51.290;6.926;2023-02-19T09:46:17;15.30;;;7.07;;
46835;SDS011;32573;51.290;6.926;2023-02-19T09:48:51;12.80;;;5.97;;
46835;SDS011;32573;51.290;6.926;2023-02-19T09:51:23;15.35;;;6.10;;
46835;SDS011;32573;51.290;6.926;2023-02-19T09:53:54;13.32;;;6.20;;
46835;SDS011;32573;51.290;6.926;2023-02-19T09:56:25;11.23;;;5.93;;
46835;SDS011;32573;51.290;6.926;2023-02-19T09:58:54;12.90;;;6.22;;
46835;SDS011;32573;51.290;6.926;2023-02-19T10:01:25;14.18;;;5.88;;
46835;SDS011;32573;51.290;6.926;2023-02-19T10:03:59;10.90;;;5.50;;
46835;SDS011;32573;51.290;6.926;2023-02-19T10:06:30;9.70;;;5.28;;
46835;SDS011;32573;51.290;6.926;2023-02-19T10:09:07;13.15;;;5.82;;
46835;SDS011;32573;51.290;6.926;2023-02-19T10:11:44;11.27;;;5.82;;
46835;SDS011;32573;51.290;6.926;2023-02-19T10:14:16;12.75;;;5.10;;
46835;SDS011;32573;51.290;6.926;2023-02-19T10:16:48;11.23;;;5.88;;
46835;SDS011;32573;51.290;6.926;2023-02-19T10:19:17;12.50;;;6.07;;
46835;SDS011;32573;51.290;6.926;2023-02-19T10:21:47;14.32;;;6.55;;
46835;SDS011;32573;51.290;6.926;2023-02-19T10:24:18;12.05;;;6.07;;
46835;SDS011;32573;51.290;6.926;2023-02-19T10:26:51;11.68;;;6.38;;
46835;SDS011;32573;51.290;6.926;2023-02-19T10:29:20;15.00;;;6.90;;
46835;SDS011;32573;51.290;6.926;2023-02-19T10:34:42;12.90;;;6.32;;
46835;SDS011;32573;51.290;6.926;2023-02-19T10:37:13;10.15;;;5.90;;
46835;SDS011;32573;51.290;6.926;2023-02-19T10:39:44;9.82;;;5.63;;
46835;SDS011;32573;51.290;6.926;2023-02-19T10:42:14;9.35;;;5.63;;
46835;SDS011;32573;51.290;6.926;2023-02-19T10:44:45;8.75;;;5.10;;
46835;SDS011;32573;51.290;6.926;2023-02-19T10:47:17;10.15;;;5.00;;
46835;SDS011;32573;51.290;6.926;2023-02-19T10:49:48;10.38;;;4.57;;
46835;SDS011;32573;51.290;6.926;2023-02-19T10:52:20;8.80;;;4.30;;
46835;SDS011;32573;51.290;6.926;2023-02-19T10:54:54;12.73;;;6.07;;
46835;SDS011;32573;51.290;6.926;2023-02-19T10:57:24;9.07;;;4.90;;
46835;SDS011;32573;51.290;6.926;2023-02-19T10:59:59;8.77;;;5.00;;
46835;SDS011;32573;51.290;6.926;2023-02-19T11:02:30;9.50;;;5.40;;
46835;SDS011;32573;51.290;6.926;2023-02-19T11:05:08;10.60;;;5.53;;
46835;SDS011;32573;51.290;6.926;2023-02-19T11:07:45;8.15;;;4.50;;
46835;SDS011;32573;51.290;6.926;2023-02-19T11:10:19;11.00;;;5.20;;
46835;SDS011;32573;51.290;6.926;2023-02-19T11:12:52;10.07;;;4.72;;
46835;SDS011;32573;51.290;6.926;2023-02-19T11:15:24;8.55;;;4.70;;
46835;SDS011;32573;51.290;6.926;2023-02-19T11:17:56;9.77;;;4.93;;
46835;SDS011;32573;51.290;6.926;2023-02-19T11:20:28;12.32;;;6.25;;
46835;SDS011;32573;51.290;6.926;2023-02-19T11:23:00;8.90;;;4.60;;
46835;SDS011;32573;51.290;6.926;2023-02-19T11:25:42;15.05;;;7.18;;
46835;SDS011;32573;51.290;6.926;2023-02-19T11:28:21;12.15;;;6.03;;
46835;SDS011;32573;51.290;6.926;2023-02-19T11:30:55;9.50;;;5.28;;
46835;SDS011;32573;51.290;6.926;2023-02-19T11:33:42;9.10;;;4.90;;
46835;SDS011;32573;51.290;6.926;2023-02-19T11:36:22;8.38;;;4.93;;
46835;SDS011;32573;51.290;6.926;2023-02-19T11:38:58;10.13;;;5.63;;
46835;SDS011;32573;51.290;6.926;2023-02-19T11:41:40;8.43;;;5.10;;
46835;SDS011;32573;51.290;6.926;2023-02-19T11:44:20;11.52;;;7.10;;
46835;SDS011;32573;51.290;6.926;2023-02-19T11:47:03;10.50;;;5.97;;
46835;SDS011;32573;51.290;6.926;2023-02-19T11:49:57;12.07;;;5.88;;
46835;SDS011;32573;51.290;6.926;2023-02-19T11:52:37;9.15;;;4.50;;
46835;SDS011;32573;51.290;6.926;2023-02-19T11:55:12;7.07;;;3.80;;
46835;SDS011;32573;51.290;6.926;2023-02-19T11:57:50;6.80;;;3.60;;
46835;SDS011;32573;51.290;6.926;2023-02-19T12:00:27;6.40;;;3.70;;
46835;SDS011;32573;51.290;6.926;2023-02-19T12:03:05;6.88;;;3.60;;
46835;SDS011;32573;51.290;6.926;2023-02-19T12:06:05;7.63;;;3.65;;
46835;SDS011;32573;51.290;6.926;2023-02-19T12:11:47;4.78;;;2.53;;
46835;SDS011;32573;51.290;6.926;2023-02-19T12:14:35;4.90;;;2.65;;
46835;SDS011;32573;51.290;6.926;2023-02-19T12:17:29;4.72;;;2.35;;
46835;SDS011;32573;51.290;6.926;2023-02-19T12:20:11;5.75;;;2.55;;
46835;SDS011;32573;51.290;6.926;2023-02-19T12:22:48;5.30;;;2.40;;
46835;SDS011;32573;51.290;6.926;2023-02-19T12:25:38;5.10;;;2.50;;
46835;SDS011;32573;51.290;6.926;2023-02-19T12:28:20;4.82;;;2.50;;
46835;SDS011;32573;51.290;6.926;2023-02-19T12:31:16;5.90;;;2.90;;
46835;SDS011;32573;51.290;6.926;2023-02-19T12:34:12;6.25;;;3.03;;
46835;SDS011;32573;51.290;6.926;2023-02-19T12:36:53;5.32;;;3.03;;
46835;SDS011;32573;51.290;6.926;2023-02-19T12:39:32;6.93;;;3.63;;
46835;SDS011;32573;51.290;6.926;2023-02-19T12:42:09;7.28;;;3.63;;
46835;SDS011;32573;51.290;6.926;2023-02-19T12:44:46;6.47;;;3.38;;
46835;SDS011;32573;51.290;6.926;2023-02-19T12:47:20;7.25;;;4.30;;
46835;SDS011;32573;51.290;6.926;2023-02-19T12:49:55;6.50;;;3.63;;
46835;SDS011;32573;51.290;6.926;2023-02-19T12:52:31;10.57;;;4.53;;
46835;SDS011;32573;51.290;6.926;2023-02-19T12:55:09;7.72;;;4.72;;
46835;SDS011;32573;51.290;6.926;2023-02-19T12:57:46;9.43;;;4.97;;
46835;SDS011;32573;51.290;6.926;2023-02-19T13:00:20;8.20;;;4.75;;
46835;SDS011;32573;51.290;6.926;2023-02-19T13:02:58;8.75;;;4.90;;
46835;SDS011;32573;51.290;6.926;2023-02-19T13:05:34;8.93;;;5.03;;
46835;SDS011;32573;51.290;6.926;2023-02-19T13:08:12;9.90;;;5.20;;
46835;SDS011;32573;51.290;6.926;2023-02-19T13:10:45;9.43;;;5.10;;
46835;SDS011;32573;51.290;6.926;2023-02-19T13:13:18;9.30;;;5.45;;
46835;SDS011;32573;51.290;6.926;2023-02-19T13:15:52;7.72;;;4.63;;
46835;SDS011;32573;51.290;6.926;2023-02-19T13:18:25;7.80;;;4.65;;
46835;SDS011;32573;51.290;6.926;2023-02-19T13:23:28;7.20;;;3.65;;
46835;SDS011;32573;51.290;6.926;2023-02-19T13:26:25;8.02;;;4.25;;
46835;SDS011;32573;51.290;6.926;2023-02-19T13:29:15;8.40;;;4.18;;
46835;SDS011;32573;51.290;6.926;2023-02-19T13:32:03;6.75;;;3.45;;
46835;SDS011;32573;51.290;6.926;2023-02-19T13:34:50;5.85;;;3.58;;
46835;SDS011;32573;51.290;6.926;2023-02-19T13:37:30;7.95;;;4.55;;
46835;SDS011;32573;51.290;6.926;2023-02-19T13:40:01;7.60;;;4.13;;
46835;SDS011;32573;51.290;6.926;2023-02-19T13:42:32;8.13;;;4.60;;
46835;SDS011;32573;51.290;6.926;2023-02-19T13:45:03;7.82;;;4.25;;
46835;SDS011;32573;51.290;6.926;2023-02-19T13:47:48;8.45;;;4.57;;
46835;SDS011;32573;51.290;6.926;2023-02-19T13:50:27;6.85;;;3.92;;
46835;SDS011;32573;51.290;6.926;2023-02-19T13:52:57;8.40;;;4.30;;
46835;SDS011;32573;51.290;6.926;2023-02-19T13:55:44;10.90;;;5.78;;
46835;SDS011;32573;51.290;6.926;2023-02-19T14:02:04;8.35;;;5.15;;
46835;SDS011;32573;51.290;6.926;2023-02-19T14:04:46;8.63;;;5.05;;
46835;SDS011;32573;51.290;6.926;2023-02-19T14:07:27;8.55;;;4.82;;
46835;SDS011;32573;51.290;6.926;2023-02-19T14:10:02;10.02;;;5.60;;
46835;SDS011;32573;51.290;6.926;2023-02-19T14:12:35;10.23;;;5.68;;
46835;SDS011;32573;51.290;6.926;2023-02-19T14:21:16;8.77;;;5.05;;
46835;SDS011;32573;51.290;6.926;2023-02-19T14:23:51;11.68;;;5.60;;
46835;SDS011;32573;51.290;6.926;2023-02-19T14:26:22;15.23;;;7.03;;
46835;SDS011;32573;51.290;6.926;2023-02-19T14:28:52;10.52;;;5.72;;
46835;SDS011;32573;51.290;6.926;2023-02-19T14:31:23;10.20;;;5.55;;
46835;SDS011;32573;51.290;6.926;2023-02-19T14:33:55;8.60;;;5.50;;
46835;SDS011;32573;51.290;6.926;2023-02-19T14:36:30;10.32;;;5.20;;
46835;SDS011;32573;51.290;6.926;2023-02-19T14:39:02;11.00;;;5.95;;
46835;SDS011;32573;51.290;6.926;2023-02-19T14:41:36;10.15;;;5.93;;
46835;SDS011;32573;51.290;6.926;2023-02-19T14:44:07;11.55;;;5.95;;
46835;SDS011;32573;51.290;6.926;2023-02-19T14:46:44;9.82;;;5.03;;
46835;SDS011;32573;51.290;6.926;2023-02-19T14:49:18;9.27;;;5.32;;
46835;SDS011;32573;51.290;6.926;2023-02-19T14:51:54;10.35;;;5.20;;
46835;SDS011;32573;51.290;6.926;2023-02-19T14:54:30;9.40;;;5.20;;
46835;SDS011;32573;51.290;6.926;2023-02-19T14:57:05;10.40;;;6.32;;
46835;SDS011;32573;51.290;6.926;2023-02-19T14:59:40;11.02;;;6.22;;
46835;SDS011;32573;51.290;6.926;2023-02-19T15:02:19;13.38;;;7.10;;
46835;SDS011;32573;51.290;6.926;2023-02-19T15:04:49;10.98;;;6.53;;
46835;SDS011;32573;51.290;6.926;2023-02-19T15:07:20;10.45;;;6.00;;
46835;SDS011;32573;51.290;6.926;2023-02-19T15:09:52;11.07;;;6.05;;
46835;SDS011;32573;51.290;6.926;2023-02-19T15:12:25;10.73;;;6.25;;
46835;SDS011;32573;51.290;6.926;2023-02-19T15:14:58;9.82;;;5.78;;
46835;SDS011;32573;51.290;6.926;2023-02-19T15:17:30;12.23;;;6.00;;
46835;SDS011;32573;51.290;6.926;2023-02-19T15:20:02;9.52;;;5.70;;
46835;SDS011;32573;51.290;6.926;2023-02-19T15:22:33;8.05;;;4.63;;
46835;SDS011;32573;51.290;6.926;2023-02-19T15:25:02;8.98;;;4.75;;
46835;SDS011;32573;51.290;6.926;2023-02-19T15:27:32;10.07;;;5.82;;
46835;SDS011;32573;51.290;6.926;2023-02-19T15:30:01;9.13;;;5.10;;
46835;SDS011;32573;51.290;6.926;2023-02-19T15:32:30;9.63;;;4.90;;